Current | Forecast
Updated: 1:50 PM BST on August 19, 2017
Observed at Leuchars, United Kingdom
Temperature 66°F
Humidity 60%
Dew Point 52°F
Wind West at 23 mph
Pressure 29.68 in (Steady)
Conditions Clear
Visibility -
UV N/A
Clouds
Yesterday's Maximum 59°F
Yesterday's Minimum 52°F approx.
Yesterday's Heating Degree Days 10 approx.
Sunrise5:49 AM BST
Sunset8:37 PM BST
Moon Rise2:44 AM BST
Moon Set7:19 PM BST
Moon PhaseMoon Phase
Waning Crescent
Raw METARMETAR EGQL 191250Z 27020KT CAVOK 19/11 Q1005 BLU


Monday
. High: 48° F.
Tuesday
. High: 53° F.
Wednesday
. High: 50° F.
Thursday
. High: 51° F.
Friday
. High: 50° F.
Saturday
. High: 48° F.
Sunday
. High: 44° F.
Monday
. High: 49° F.

Units: English | Metric

Find the Weather for any City, State or Zipcode, or Country:

U.S. State List | Severe Weather | Tropical Storms | Ski Conditions
United States | Canada | Central America | South America | Asia | Europe | Australia | Africa | Islands

Weather Underground

© Copyright 2017
The Weather Company, LLC